Peterborough Airport
CYPQ : now visible

Airfield :











YOU CAN JOIN US ON...

 
LOGIN :

Register | Disclaimer

   EN    FR    IT 

 









Legend :    VFR   Marginal VFR   IFR   Intensive IFR   Very Intensive IFR
Visi :
Ceiling :
>= 8 km
>= 3000ft
5 to 8 km
1000 to 3000 ft
1500m to 5 km
500 to 1000 ft
800 to 1500m
200 to 500 ft
< 800m
< 200 ft
Symbols :   Thunderstorms  Fog  Heavy snow  Heavy precipitations  Wind > 20 kt






- Airport Elevation : 628 ft
- IATA code : YPQ


CYPQ - Peterborough

CURRENT METAR :
  • 190218Z AUTO 03004KT 6SM -SN OVC014 00/00 A2977 RMK SLP090

EXPIRED METARs :
  • 190153Z AUTO 03003KT 5SM -SN OVC014 00/00 A2977 RMK SLP093
  • 190140Z AUTO 03002KT 7SM -SN OVC014 01/00 A2978 RMK SLP095
  • 190134Z AUTO 05003KT 9SM -RASN OVC014 01/01 A2978 RMK SLP095
  • 190111Z AUTO 02005KT 8SM -RA OVC012 00/00 A2977 RMK SLP093
  • 190057Z AUTO 02006KT 5SM -SN -UP OVC012 00/00 A2977 RMK SLP093
  • 190026Z AUTO 02005KT 2SM -SN OVC014 00/00 A2978 RMK VIS VRB 1 1/4-2 1/2 SLP095
  • 190002Z AUTO 02004KT 1 1/2SM -SN OVC014 00/00 A2978 RMK SLP096
  • 182346Z AUTO 01003KT 1 1/4SM -SN OVC014 01/00 A2979 RMK SLP099
  • 182334Z AUTO 02004KT 2SM -SN OVC014 01/00 A2979 RMK VIS VRB 1 1/2-3 SLP099
  • 182328Z AUTO 03003KT 2 1/2SM -SN OVC014 01/01 A2979 RMK VIS VRB 1 3/4-3 SLP099
  • 182323Z AUTO 03003KT 5SM -SN OVC014 01/00 A2979 RMK SLP099

TAF TAF CYPQ
Valid from the 18 at 20:00 until the 19 at 03:00 UTC


181938Z 1820/1903 07006KT P6SM -RASN OVC012
TEMPO 1820/1823 2SM -SN BR OVC007
FM182300 05006KT 2SM -SN BKN006 OVC010
TEMPO 1823/1903 P6SM NSW SCT006 OVC010 RMK FCST BASED ON AUTO OBS. NXT FCST WILL BE ISSUED AT 191045Z



MET'MAP, your aeronautical weather chart ! - Copyright ORBIFLY December 2007 - Disclaimer

ORBIFLY MET'MAP TEAM :

Programming & Development : Alexandra Zaïnal
Concept & Development : Baudouin d'Aumeries
Co-Development & Prog : Marc-Olivier Méhu
Technical & hardware support : Manuel Goepfert

Contact : metmap@orbifly.com




SOURCES & CREDITS :

   NOAA       Earth
Advisory